createdAt,value
2022-12-09T00:01:38.293Z,73.03
2022-12-09T00:04:06.422Z,73.21
2022-12-09T00:06:34.435Z,73.04
2022-12-09T00:09:02.547Z,72.94
2022-12-09T00:11:30.745Z,72.71
2022-12-09T00:13:59.751Z,72.83
2022-12-09T00:16:27.899Z,72.54
2022-12-09T00:18:57.871Z,71.85
2022-12-09T00:21:28.658Z,71.97
2022-12-09T00:23:58.129Z,71.70
2022-12-09T00:26:27.763Z,71.70
2022-12-09T00:28:56.842Z,72.16
2022-12-09T00:31:26.365Z,71.61
2022-12-09T00:33:56.452Z,72.21
2022-12-09T00:36:25.746Z,72.59
2022-12-09T00:38:54.693Z,72.55
2022-12-09T00:41:23.071Z,72.42
2022-12-09T00:43:51.609Z,71.90
2022-12-09T00:46:19.801Z,72.27
2022-12-09T00:48:47.787Z,71.74
2022-12-09T00:51:17.729Z,71.97
2022-12-09T00:53:47.449Z,71.92
2022-12-09T00:56:15.384Z,71.18
2022-12-09T00:58:43.320Z,71.12
2022-12-09T01:01:11.269Z,71.21
2022-12-09T01:03:40.119Z,71.19
2022-12-09T01:06:11.879Z,71.22
2022-12-09T01:08:40.234Z,71.26
2022-12-09T01:11:14.398Z,71.21
2022-12-09T01:13:42.373Z,71.61
2022-12-09T01:16:16.038Z,71.53
2022-12-09T01:18:44.141Z,71.71
2022-12-09T01:21:12.129Z,71.59
2022-12-09T01:23:41.798Z,71.43
2022-12-09T01:26:09.993Z,71.42
2022-12-09T01:28:40.918Z,70.96
2022-12-09T01:31:10.169Z,70.94
2022-12-09T01:33:38.341Z,71.41
2022-12-09T01:36:07.487Z,72.06
2022-12-09T01:38:35.794Z,72.58
2022-12-09T01:41:03.889Z,72.57
2022-12-09T01:43:31.807Z,72.96
2022-12-09T01:46:01.665Z,73.27
2022-12-09T01:48:32.244Z,73.60
2022-12-09T01:51:03.510Z,73.63
2022-12-09T01:53:33.871Z,73.25
2022-12-09T01:56:09.516Z,73.17
2022-12-09T01:58:37.565Z,73.86
2022-12-09T02:01:07.240Z,73.71
2022-12-09T02:03:35.568Z,73.79
2022-12-09T02:06:03.930Z,73.65
2022-12-09T02:08:32.443Z,73.85
2022-12-09T02:11:06.901Z,74.39
2022-12-09T02:13:45.554Z,74.19
2022-12-09T02:16:18.718Z,72.99
2022-12-09T02:18:52.428Z,72.57
2022-12-09T02:21:24.497Z,72.20
2022-12-09T02:23:57.148Z,71.50
2022-12-09T02:26:29.124Z,70.73
2022-12-09T02:29:09.730Z,70.70
2022-12-09T02:31:54.187Z,70.88
2022-12-09T02:34:24.598Z,70.39
2022-12-09T02:37:04.976Z,69.41
2022-12-09T02:39:39.979Z,69.65
2022-12-09T02:42:09.989Z,69.65
2022-12-09T02:44:40.093Z,69.45
2022-12-09T02:47:12.591Z,69.25
2022-12-09T02:49:42.822Z,69.33
2022-12-09T02:52:12.223Z,69.34
2022-12-09T02:54:40.941Z,69.43
2022-12-09T02:57:14.061Z,69.23
2022-12-09T02:59:42.640Z,69.93
2022-12-09T03:02:18.803Z,69.58
2022-12-09T03:04:50.958Z,69.70
2022-12-09T03:07:24.708Z,69.88
2022-12-09T03:10:00.521Z,70.08
2022-12-09T03:12:29.934Z,69.79
2022-12-09T03:14:59.197Z,69.49
2022-12-09T03:17:31.860Z,69.40
2022-12-09T03:20:05.959Z,69.31
2022-12-09T03:22:36.427Z,69.71
2022-12-09T03:25:07.004Z,69.40
2022-12-09T03:27:39.986Z,68.75
2022-12-09T03:30:10.513Z,68.94
2022-12-09T03:32:39.624Z,69.40
2022-12-09T03:35:12.637Z,69.44
2022-12-09T03:37:42.976Z,69.12
2022-12-09T03:40:14.516Z,68.91
2022-12-09T03:42:47.337Z,69.33
2022-12-09T03:45:17.007Z,69.49
2022-12-09T03:47:45.267Z,68.42
2022-12-09T03:50:16.542Z,68.48
2022-12-09T03:52:46.675Z,68.66
2022-12-09T03:55:20.543Z,68.58
2022-12-09T03:57:51.520Z,69.51
2022-12-09T04:00:20.377Z,69.29
2022-12-09T04:02:48.639Z,69.23
2022-12-09T04:05:18.337Z,69.82
2022-12-09T04:07:46.404Z,69.85
2022-12-09T04:10:14.961Z,69.85
2022-12-09T04:12:42.861Z,69.30
2022-12-09T04:15:11.148Z,70.01
2022-12-09T04:17:39.316Z,69.42
2022-12-09T04:20:09.225Z,69.52
2022-12-09T04:22:38.862Z,69.86
2022-12-09T04:25:07.724Z,70.10
2022-12-09T04:27:35.750Z,70.07
2022-12-09T04:30:04.001Z,70.07
2022-12-09T04:32:33.700Z,70.32
2022-12-09T04:35:02.221Z,70.82
2022-12-09T04:37:30.276Z,70.86
2022-12-09T04:39:59.642Z,70.50
2022-12-09T04:42:29.763Z,69.76
2022-12-09T04:44:57.891Z,70.19
2022-12-09T04:47:25.845Z,69.89
2022-12-09T04:49:54.304Z,69.51
2022-12-09T04:52:22.246Z,70.12
2022-12-09T04:54:50.947Z,69.66
2022-12-09T04:57:20.800Z,69.60
2022-12-09T04:59:49.432Z,69.67
2022-12-09T05:02:17.664Z,69.44
2022-12-09T05:04:46.996Z,69.79
2022-12-09T05:07:15.486Z,70.08
2022-12-09T05:09:43.836Z,70.63
2022-12-09T05:12:12.068Z,70.34
2022-12-09T05:14:41.694Z,70.36
2022-12-09T05:17:09.651Z,70.51
2022-12-09T05:19:38.351Z,70.52
2022-12-09T05:22:06.470Z,70.30
2022-12-09T05:24:34.459Z,70.19
2022-12-09T05:27:02.772Z,70.09
2022-12-09T05:29:31.000Z,70.03
2022-12-09T05:32:00.397Z,70.17
2022-12-09T05:34:28.697Z,70.16
2022-12-09T05:36:57.294Z,70.24
2022-12-09T05:39:25.700Z,70.43
2022-12-09T05:41:53.896Z,70.26
2022-12-09T05:44:22.027Z,70.30
2022-12-09T05:46:50.038Z,70.18
2022-12-09T05:49:19.526Z,70.22
2022-12-09T05:51:47.886Z,70.28
2022-12-09T05:54:15.907Z,70.29
2022-12-09T05:56:48.126Z,70.28
2022-12-09T05:59:16.973Z,70.33
2022-12-09T06:01:45.182Z,70.66
2022-12-09T06:04:13.247Z,70.64
2022-12-09T06:06:43.295Z,70.19
2022-12-09T06:09:12.170Z,69.91
2022-12-09T06:11:41.196Z,69.70
2022-12-09T06:14:11.329Z,69.54
2022-12-09T06:16:39.974Z,68.95
2022-12-09T06:19:08.400Z,69.18
2022-12-09T06:21:36.552Z,69.09
2022-12-09T06:24:08.068Z,68.54
2022-12-09T06:26:36.276Z,68.82
2022-12-09T06:29:04.866Z,68.86
2022-12-09T06:31:33.417Z,68.80
2022-12-09T06:34:02.313Z,68.82
2022-12-09T06:36:32.101Z,68.71
2022-12-09T06:39:07.639Z,68.62
2022-12-09T06:41:40.800Z,68.32
2022-12-09T06:44:09.127Z,68.42
2022-12-09T06:46:37.569Z,68.37
2022-12-09T06:49:05.819Z,68.70
2022-12-09T06:51:34.475Z,68.31
2022-12-09T06:54:02.444Z,67.85
2022-12-09T06:56:32.665Z,68.70
2022-12-09T06:59:02.197Z,68.61
2022-12-09T07:01:30.102Z,69.03
2022-12-09T07:03:58.521Z,69.51
2022-12-09T07:06:28.731Z,69.29
2022-12-09T07:08:58.468Z,69.30
2022-12-09T07:11:27.209Z,69.24
2022-12-09T07:13:55.571Z,68.51
2022-12-09T07:16:25.675Z,68.76
2022-12-09T07:18:54.019Z,68.64
2022-12-09T07:21:24.026Z,68.45
2022-12-09T07:23:52.548Z,68.46
2022-12-09T07:26:21.440Z,68.59
2022-12-09T07:28:50.576Z,68.71
2022-12-09T07:31:21.163Z,68.51
2022-12-09T07:33:51.596Z,67.86
2022-12-09T07:36:21.507Z,67.50
2022-12-09T07:38:50.498Z,67.57
2022-12-09T07:41:19.408Z,67.90
2022-12-09T07:43:48.197Z,68.25
2022-12-09T07:46:18.200Z,68.08
2022-12-09T07:48:47.157Z,67.94
2022-12-09T07:51:17.137Z,68.02
2022-12-09T07:53:45.410Z,68.09
2022-12-09T07:56:14.811Z,68.23
2022-12-09T07:58:43.926Z,68.16
2022-12-09T08:01:14.153Z,68.03
2022-12-09T08:03:42.772Z,67.99
2022-12-09T08:06:14.004Z,67.67
2022-12-09T08:08:44.266Z,67.55
2022-12-09T08:11:14.623Z,67.46
2022-12-09T08:13:43.159Z,67.49
2022-12-09T08:16:13.420Z,67.31
2022-12-09T08:18:42.961Z,66.81
2022-12-09T08:21:13.254Z,66.91
2022-12-09T08:23:43.442Z,66.76
2022-12-09T08:26:12.714Z,66.82
2022-12-09T08:28:41.193Z,66.81
2022-12-09T08:31:10.347Z,66.38
2022-12-09T08:33:38.989Z,66.18
2022-12-09T08:36:13.183Z,65.60
2022-12-09T08:38:41.401Z,65.67
2022-12-09T08:41:12.633Z,65.48
2022-12-09T08:43:41.359Z,65.33
2022-12-09T08:46:09.560Z,65.72
2022-12-09T08:48:38.085Z,65.63
2022-12-09T08:51:07.876Z,65.74
2022-12-09T08:53:35.926Z,66.07
2022-12-09T08:56:11.141Z,66.46
2022-12-09T08:58:39.513Z,66.72
2022-12-09T09:01:08.053Z,66.77
2022-12-09T09:03:36.462Z,66.66
2022-12-09T09:06:09.539Z,66.91
2022-12-09T09:08:39.238Z,66.66
2022-12-09T09:11:12.367Z,66.59
2022-12-09T09:13:41.635Z,65.84
2022-12-09T09:16:11.786Z,65.97
2022-12-09T09:18:41.011Z,65.54
2022-12-09T09:21:10.561Z,65.04
2022-12-09T09:23:38.871Z,64.49
2022-12-09T09:26:13.137Z,64.71
2022-12-09T09:28:41.871Z,64.64
2022-12-09T09:31:12.503Z,64.51
2022-12-09T09:33:40.722Z,63.58
2022-12-09T09:36:11.676Z,63.51
2022-12-09T09:38:40.244Z,63.32
2022-12-09T09:41:16.627Z,63.03
2022-12-09T09:43:46.527Z,62.85
2022-12-09T09:46:18.340Z,63.14
2022-12-09T09:48:47.795Z,63.10
2022-12-09T09:51:18.472Z,62.70
2022-12-09T09:53:46.772Z,62.87
2022-12-09T09:56:21.881Z,63.59
2022-12-09T09:58:57.437Z,63.23
2022-12-09T10:01:28.822Z,63.03
2022-12-09T10:04:00.603Z,62.03
2022-12-09T10:06:39.248Z,61.91
2022-12-09T10:09:14.501Z,62.09
2022-12-09T10:11:54.924Z,60.82
2022-12-09T10:14:34.060Z,59.78
2022-12-09T10:17:08.458Z,58.25
2022-12-09T10:19:37.803Z,57.93
2022-12-09T10:22:13.524Z,57.38
2022-12-09T10:24:47.718Z,57.71
2022-12-09T10:27:21.953Z,57.53
2022-12-09T10:29:57.703Z,57.35
2022-12-09T10:32:28.837Z,57.10
2022-12-09T10:34:57.149Z,57.31
2022-12-09T10:37:29.906Z,57.03
2022-12-09T10:40:16.417Z,55.74
2022-12-09T10:43:05.687Z,54.10
2022-12-09T10:46:15.159Z,52.38
2022-12-09T10:48:33.033Z,50.07
2022-12-09T10:51:04.273Z,48.65
2022-12-09T10:53:33.869Z,48.26
2022-12-09T10:56:02.781Z,48.32
2022-12-09T10:58:32.580Z,49.33
2022-12-09T11:01:06.185Z,48.22
2022-12-09T11:03:36.636Z,46.98
2022-12-09T11:06:16.491Z,44.18
2022-12-09T11:08:51.726Z,41.64
2022-12-09T11:11:20.682Z,38.43
2022-12-09T11:13:48.878Z,36.43
2022-12-09T11:16:18.190Z,36.92
2022-12-09T11:18:48.363Z,37.38
2022-12-09T11:21:35.012Z,41.23
2022-12-09T11:24:04.861Z,45.16
2022-12-09T11:26:36.650Z,48.06
2022-12-09T11:29:07.544Z,49.98
2022-12-09T11:31:41.173Z,50.77
2022-12-09T11:34:17.746Z,52.89
2022-12-09T11:36:49.451Z,53.43
2022-12-09T11:39:29.404Z,54.47
2022-12-09T11:42:19.456Z,54.79
2022-12-09T11:44:56.551Z,55.87
2022-12-09T11:47:50.260Z,55.90
2022-12-09T11:50:23.888Z,55.48
2022-12-09T11:53:08.099Z,55.41
2022-12-09T11:55:37.531Z,55.48
2022-12-09T11:58:07.671Z,55.70
2022-12-09T12:00:39.278Z,55.82
2022-12-09T12:03:15.376Z,55.33
2022-12-09T12:05:45.150Z,55.00
2022-12-09T12:08:19.572Z,55.33
2022-12-09T12:10:52.600Z,55.16
2022-12-09T12:13:23.611Z,56.37
2022-12-09T12:15:55.080Z,55.76
2022-12-09T12:18:24.503Z,55.52
2022-12-09T12:21:22.945Z,54.85
2022-12-09T12:24:15.676Z,54.99
2022-12-09T12:26:50.828Z,54.69
2022-12-09T12:29:26.424Z,55.19
2022-12-09T12:32:13.981Z,55.07
2022-12-09T12:34:49.990Z,55.42
2022-12-09T12:37:29.103Z,55.98
2022-12-09T12:40:04.562Z,56.38
2022-12-09T12:42:40.542Z,56.36
2022-12-09T12:45:32.922Z,56.30
2022-12-09T12:48:03.642Z,56.21
2022-12-09T12:50:44.763Z,56.85
2022-12-09T12:53:23.384Z,56.92
2022-12-09T12:55:58.122Z,57.69
2022-12-09T12:58:39.991Z,58.04
2022-12-09T13:01:15.593Z,57.89
2022-12-09T13:03:51.972Z,57.81
2022-12-09T13:06:36.830Z,57.56
2022-12-09T13:09:10.474Z,57.71
2022-12-09T13:11:46.179Z,57.93
2022-12-09T13:14:17.129Z,57.90
2022-12-09T13:16:45.976Z,58.17
2022-12-09T13:19:17.327Z,58.36
2022-12-09T13:21:47.058Z,58.44
2022-12-09T13:24:21.769Z,58.50
2022-12-09T13:26:53.385Z,58.33
2022-12-09T13:29:38.482Z,58.83
2022-12-09T13:32:20.290Z,58.05
2022-12-09T13:34:51.511Z,60.54
2022-12-09T13:38:00.748Z,61.19
2022-12-09T13:40:32.449Z,60.98
2022-12-09T13:43:13.511Z,60.92
2022-12-09T13:45:50.685Z,61.90
2022-12-09T13:48:44.396Z,61.88
2022-12-09T13:51:12.473Z,62.04
2022-12-09T13:53:46.456Z,61.40
2022-12-09T13:56:22.709Z,61.81
2022-12-09T13:59:43.946Z,62.82
2022-12-09T14:02:23.278Z,64.00
2022-12-09T14:05:00.034Z,64.66
2022-12-09T14:07:33.712Z,63.88
2022-12-09T14:10:03.404Z,64.07
2022-12-09T14:13:03.684Z,64.13
2022-12-09T14:15:37.608Z,64.10
2022-12-09T14:18:16.316Z,65.03
2022-12-09T14:20:44.163Z,66.17
2022-12-09T14:23:19.308Z,65.44
2022-12-09T14:26:09.097Z,64.96
2022-12-09T14:28:42.077Z,65.17
2022-12-09T14:31:10.284Z,65.81
2022-12-09T14:33:39.840Z,66.38
2022-12-09T14:36:20.590Z,67.31
2022-12-09T14:39:22.565Z,67.92
2022-12-09T14:41:47.438Z,70.34
2022-12-09T14:44:22.482Z,69.73
2022-12-09T14:46:54.380Z,68.80
2022-12-09T14:49:24.922Z,68.41
2022-12-09T14:51:55.434Z,68.25
2022-12-09T14:54:25.086Z,68.06
2022-12-09T14:56:57.600Z,68.51
2022-12-09T14:59:27.008Z,68.14
2022-12-09T15:01:57.188Z,67.15
2022-12-09T15:04:29.965Z,67.14
2022-12-09T15:07:16.426Z,67.40
2022-12-09T15:09:55.815Z,67.31
2022-12-09T15:12:27.844Z,66.54
2022-12-09T15:14:58.668Z,66.45
2022-12-09T15:17:29.083Z,66.53
2022-12-09T15:20:00.625Z,66.37
2022-12-09T15:22:40.036Z,66.52
2022-12-09T15:25:17.851Z,66.35
2022-12-09T15:27:56.354Z,66.70
2022-12-09T15:30:26.337Z,66.11
2022-12-09T15:32:54.285Z,66.32
2022-12-09T15:35:24.962Z,66.29
2022-12-09T15:37:54.020Z,66.44
2022-12-09T15:40:23.032Z,66.47
2022-12-09T15:42:53.959Z,67.08
2022-12-09T15:45:23.785Z,66.57
2022-12-09T15:47:54.219Z,66.11
2022-12-09T15:50:24.229Z,65.72
2022-12-09T15:52:53.380Z,65.27
2022-12-09T15:55:23.623Z,65.18
2022-12-09T15:57:54.555Z,65.22
2022-12-09T16:00:22.648Z,65.82
2022-12-09T16:02:51.119Z,66.38
2022-12-09T16:05:24.024Z,66.15
2022-12-09T16:07:57.278Z,65.52
2022-12-09T16:10:27.017Z,65.25
2022-12-09T16:13:08.922Z,65.10
2022-12-09T16:15:47.033Z,64.71
2022-12-09T16:18:18.808Z,64.41
2022-12-09T16:20:57.767Z,64.54
2022-12-09T16:23:26.874Z,64.52
2022-12-09T16:26:04.795Z,64.48
2022-12-09T16:28:36.116Z,64.09
2022-12-09T16:31:18.385Z,64.12
2022-12-09T16:33:48.876Z,64.00
2022-12-09T16:36:19.721Z,64.11
2022-12-09T16:39:05.397Z,64.61
2022-12-09T16:42:01.612Z,64.38
2022-12-09T16:44:34.925Z,63.76
2022-12-09T16:47:14.774Z,63.52
2022-12-09T16:49:44.178Z,63.45
2022-12-09T16:52:14.290Z,63.28
2022-12-09T16:54:43.647Z,63.39
2022-12-09T16:57:15.643Z,63.17
2022-12-09T16:59:44.018Z,63.30
2022-12-09T17:02:20.093Z,63.32
2022-12-09T17:04:49.012Z,63.46
2022-12-09T17:07:16.846Z,63.22
2022-12-09T17:09:44.732Z,62.99
2022-12-09T17:12:13.954Z,63.31
2022-12-09T17:14:41.890Z,63.53
2022-12-09T17:17:09.955Z,63.42
2022-12-09T17:19:38.502Z,63.18
2022-12-09T17:22:06.410Z,62.72
2022-12-09T17:24:34.300Z,62.95
2022-12-09T17:27:02.196Z,62.63
2022-12-09T17:29:31.480Z,62.43
2022-12-09T17:31:59.361Z,62.37
2022-12-09T17:34:27.581Z,62.75
2022-12-09T17:36:56.055Z,62.40
2022-12-09T17:39:24.727Z,62.37
2022-12-09T17:41:52.671Z,62.37
2022-12-09T17:44:21.319Z,62.07
2022-12-09T17:46:51.032Z,62.03
2022-12-09T17:49:19.062Z,62.09
2022-12-09T17:51:47.226Z,62.17
2022-12-09T17:54:15.103Z,61.70
2022-12-09T17:56:43.005Z,61.61
2022-12-09T17:59:16.778Z,61.50
2022-12-09T18:01:46.230Z,61.54
2022-12-09T18:04:15.965Z,61.28
2022-12-09T18:06:44.861Z,61.42
2022-12-09T18:09:14.516Z,61.26
2022-12-09T18:11:42.795Z,61.17
2022-12-09T18:14:10.901Z,61.16
2022-12-09T18:16:38.889Z,60.90
2022-12-09T18:19:09.853Z,60.56
2022-12-09T18:21:39.347Z,60.81
2022-12-09T18:24:07.695Z,61.16
2022-12-09T18:26:41.374Z,61.51
2022-12-09T18:29:09.975Z,61.49
2022-12-09T18:31:37.756Z,61.46
2022-12-09T18:34:05.577Z,61.30
2022-12-09T18:36:33.366Z,61.20
2022-12-09T18:39:02.510Z,61.25
2022-12-09T18:41:31.758Z,61.30
2022-12-09T18:44:06.120Z,61.05
2022-12-09T18:46:36.220Z,61.32
2022-12-09T18:49:07.203Z,61.67
2022-12-09T18:51:35.574Z,61.35
2022-12-09T18:54:05.496Z,61.48
2022-12-09T18:56:34.144Z,61.77
2022-12-09T18:59:07.051Z,61.91
2022-12-09T19:01:39.016Z,62.03
2022-12-09T19:04:08.583Z,62.40
2022-12-09T19:06:37.714Z,62.69
2022-12-09T19:09:08.921Z,63.39
2022-12-09T19:11:38.086Z,63.20
2022-12-09T19:14:07.008Z,63.29
2022-12-09T19:16:35.075Z,63.40
2022-12-09T19:19:09.215Z,63.30
2022-12-09T19:21:38.096Z,63.53
2022-12-09T19:24:08.497Z,63.74
2022-12-09T19:26:37.417Z,63.61
2022-12-09T19:29:06.617Z,63.82
2022-12-09T19:31:37.323Z,63.66
2022-12-09T19:34:06.941Z,63.96
2022-12-09T19:36:35.003Z,63.87
2022-12-09T19:39:03.483Z,64.07
2022-12-09T19:41:33.224Z,64.60
2022-12-09T19:44:02.879Z,65.21
2022-12-09T19:46:30.776Z,65.09
2022-12-09T19:48:59.313Z,65.15
2022-12-09T19:51:27.977Z,65.55
2022-12-09T19:53:56.836Z,65.31
2022-12-09T19:56:24.936Z,65.32
2022-12-09T19:58:54.465Z,65.81
2022-12-09T20:01:23.825Z,66.67
2022-12-09T20:03:52.945Z,66.52
2022-12-09T20:06:21.824Z,66.99
2022-12-09T20:08:50.090Z,66.79
2022-12-09T20:11:20.034Z,66.66
2022-12-09T20:13:48.233Z,67.76
2022-12-09T20:16:19.030Z,67.64
2022-12-09T20:18:48.480Z,67.23
2022-12-09T20:21:17.715Z,66.97
2022-12-09T20:23:46.362Z,67.25
2022-12-09T20:26:15.822Z,66.88
2022-12-09T20:28:45.064Z,66.91
2022-12-09T20:31:14.427Z,66.72
2022-12-09T20:33:43.697Z,67.01
2022-12-09T20:36:13.356Z,67.29
2022-12-09T20:38:41.500Z,67.54
2022-12-09T20:41:11.143Z,67.18
2022-12-09T20:43:40.251Z,67.31
2022-12-09T20:46:09.128Z,67.29
2022-12-09T20:48:37.969Z,68.84
2022-12-09T20:51:08.560Z,68.93
2022-12-09T20:53:37.310Z,68.11
2022-12-09T20:56:05.525Z,67.68
2022-12-09T20:58:33.323Z,67.84
2022-12-09T21:01:05.988Z,67.81
2022-12-09T21:03:33.873Z,68.11
2022-12-09T21:06:01.657Z,69.08
2022-12-09T21:08:31.927Z,69.57
2022-12-09T21:11:04.338Z,70.08
2022-12-09T21:13:32.122Z,69.82
2022-12-09T21:16:07.066Z,69.77
2022-12-09T21:18:35.541Z,69.29
2022-12-09T21:21:03.414Z,69.08
2022-12-09T21:23:34.435Z,69.02
2022-12-09T21:26:06.508Z,69.98
2022-12-09T21:28:34.362Z,69.60
2022-12-09T21:31:08.223Z,70.13
2022-12-09T21:33:36.942Z,70.29
2022-12-09T21:36:06.738Z,69.68
2022-12-09T21:38:37.421Z,69.30
2022-12-09T21:41:06.208Z,69.37
2022-12-09T21:43:34.409Z,68.93
2022-12-09T21:46:03.373Z,69.19
2022-12-09T21:48:32.028Z,68.50
2022-12-09T21:51:01.020Z,68.08
2022-12-09T21:53:29.311Z,68.01
2022-12-09T21:56:03.525Z,68.04
2022-12-09T21:58:32.325Z,67.83
2022-12-09T22:01:00.891Z,68.19
2022-12-09T22:03:28.776Z,68.62
2022-12-09T22:05:58.433Z,69.57
2022-12-09T22:08:27.067Z,70.24
2022-12-09T22:10:54.853Z,69.86
2022-12-09T22:13:24.033Z,69.09
2022-12-09T22:15:51.869Z,68.70
2022-12-09T22:18:19.920Z,68.65
2022-12-09T22:21:23.689Z,68.46
2022-12-09T22:23:35.841Z,68.48
2022-12-09T22:26:06.473Z,68.47
2022-12-09T22:28:36.284Z,68.45
2022-12-09T22:31:10.137Z,68.15
2022-12-09T22:33:37.962Z,67.91
2022-12-09T22:36:06.478Z,67.99
2022-12-09T22:38:34.767Z,68.33
2022-12-09T22:41:04.663Z,68.73
2022-12-09T22:43:37.904Z,68.74
2022-12-09T22:46:09.099Z,68.60
2022-12-09T22:48:37.017Z,68.42
2022-12-09T22:51:05.990Z,68.25
2022-12-09T22:53:34.562Z,68.27
2022-12-09T22:56:02.358Z,68.25
2022-12-09T22:58:30.196Z,68.39
2022-12-09T23:00:58.018Z,68.58
2022-12-09T23:03:27.600Z,68.64
2022-12-09T23:05:56.527Z,68.17
2022-12-09T23:08:24.459Z,68.07
2022-12-09T23:10:52.340Z,67.83
2022-12-09T23:13:20.119Z,67.97
2022-12-09T23:15:47.898Z,69.70
2022-12-09T23:18:15.715Z,69.23
2022-12-09T23:20:44.937Z,68.72
2022-12-09T23:23:12.770Z,68.72
2022-12-09T23:25:41.606Z,68.17
2022-12-09T23:28:11.455Z,68.17
2022-12-09T23:30:39.361Z,68.46
2022-12-09T23:33:07.116Z,68.29
2022-12-09T23:35:38.515Z,68.25
2022-12-09T23:38:07.603Z,68.58
2022-12-09T23:40:35.385Z,68.75
2022-12-09T23:43:03.425Z,68.84
2022-12-09T23:45:31.338Z,68.16
2022-12-09T23:47:59.281Z,67.79
2022-12-09T23:50:27.049Z,67.51
2022-12-09T23:52:54.791Z,67.46
2022-12-09T23:55:23.964Z,67.46
2022-12-09T23:57:51.729Z,67.44
